Time;durP1;ratioP1;P1;durP2;ratioP2;P2;SDS_P1;SDS_P2;PMS_P1;PMS_P2;Temp;Humidity;BMP_temperature;BMP_pressure;BME280_temperature;BME280_humidity;BME280_pressure;Samples;Min_cycle;Max_cycle;Signal;HPM_P1;HPM_P2
2022/01/24 11:27:02;;;;;;;;;;;;;;;;;;5154015;27;28223;-91
2022/01/24 11:29:27;;;;;;;;;;;;;;;;;;5135834;27;28356;-90
2022/01/24 11:31:52;;;;;;;;;;;;;;;;;;5138015;27;28280;-87
2022/01/24 11:34:17;;;;;;;;;;;;;;;;;;5154194;27;28871;-88
2022/01/24 11:36:42;;;;;;;;;;;;;;;;;;5134649;27;28411;-89
2022/01/24 11:39:07;;;;;;;;;;;;;;;;;;5153502;27;28382;-88
2022/01/24 11:41:34;;;;;;;;;;;;;;;;;;5154522;27;28376;-87
2022/01/24 11:44:07;;;;;;;;;;;;;;;;;;5154277;27;28297;-89
2022/01/24 11:46:34;;;;;;;;;;;;;;;;;;5154051;27;28309;-88
2022/01/24 11:48:59;;;;;;;;;;;;;;;;;;5154294;27;28333;-88
2022/01/24 11:51:24;;;;;;;;;;;;;;;;;;5154145;27;28376;-88
2022/01/24 11:53:50;;;;;;;;;;;;;;;;;;5154124;27;35735;-88
2022/01/24 11:56:15;;;;;;;;;;;;;;;;;;5153739;27;28674;-88
2022/01/24 11:58:40;;;;;;;;;;;;;;;;;;5153871;27;28240;-88
2022/01/24 12:01:07;;;;;;;;;;;;;;;;;;5154041;27;28326;-88
2022/01/24 12:03:32;;;;;;;;;;;;;;;;;;5154084;27;28362;-88
2022/01/24 12:05:57;;;;;;;;;;;;;;;;;;5153593;27;28335;-88
2022/01/24 12:08:23;;;;;;;;;;;;;;;;;;5153783;27;28547;-88
2022/01/24 12:10:48;;;;;;;;;;;;;;;;;;5153843;27;28384;-88
2022/01/24 12:13:17;;;;;;;;;;;;;;;;;;5135143;27;28461;-88
2022/01/24 12:15:42;;;;;;;;;;;;;;;;;;5153610;27;28494;-87
2022/01/24 12:18:07;;;;;;;;;;;;;;;;;;5153625;27;28347;-88
2022/01/24 12:20:34;;;;;;;;;;;;;;;;;;5153538;27;28271;-88
2022/01/24 12:22:59;;;;;;;;;;;;;;;;;;5153774;27;28266;-88
2022/01/24 12:25:28;;;;;;;;;;;;;;;;;;5153506;27;33698;-88
2022/01/24 12:27:53;;;;;;;;;;;;;;;;;;5153349;27;28449;-88
2022/01/24 12:30:18;;;;;;;;;;;;;;;;;;5134743;27;28405;-88
2022/01/24 12:32:43;;;;;;;;;;;;;;;;;;5153495;27;28333;-88
2022/01/24 12:35:09;;;;;;;;;;;;;;;;;;5153029;27;28332;-88
2022/01/24 12:37:34;;;;;;;;;;;;;;;;;;5143875;27;28414;-88
2022/01/24 12:40:01;;;;;;;;;;;;;;;;;;5139216;27;28396;-87
2022/01/24 12:42:34;;;;;;;;;;;;;;;;;;5139469;27;28469;-88
2022/01/24 12:47:43;;;;;;;;;;;;;;;;;;5139396;27;28330;-88
2022/01/24 12:50:10;;;;;;;;;;;;;;;;;;5139319;27;28224;-88
2022/01/24 12:52:36;;;;;;;;;;;;;;;;;;5139414;27;28452;-85
2022/01/24 12:55:01;;;;;;;;;;;;;;;;;;5139148;27;28409;-85
2022/01/24 12:57:29;;;;;;;;;;;;;;;;;;5139030;27;28299;-88
2022/01/24 12:59:54;;;;;;;;;;;;;;;;;;5139192;27;28337;-86
2022/01/24 13:02:19;;;;;;;;;;;;;;;;;;5139169;27;28236;-85
2022/01/24 13:04:50;;;;;;;;;;;;;;;;;;5138891;27;28253;-85
2022/01/24 13:07:15;;;;;;;;;;;;;;;;;;5138976;27;28257;-88
2022/01/24 13:09:41;;;;;;;;;;;;;;;;;;5138818;27;28360;-85
2022/01/24 13:12:07;;;;;;;;;;;;;;;;;;5139205;27;28380;-86
2022/01/24 13:14:46;;;;;;;;;;;;;;;;;;5138666;27;29405;-86
2022/01/24 13:22:57;;;;;;;;;;;;;;;;;;5139103;27;28201;-88
2022/01/24 13:25:25;;;;;;;;;;;;;;;;;;5138441;27;29326;-88
2022/01/24 13:27:50;;;;;;;;;;;;;;;;;;5138635;27;28420;-89
2022/01/24 13:30:16;;;;;;;;;;;;;;;;;;5119961;27;28323;-88
2022/01/24 13:32:41;;;;;;;;;;;;;;;;;;5138713;27;27793;-88
2022/01/24 13:35:07;;;;;;;;;;;;;;;;;;5119629;27;30048;-85
2022/01/24 13:37:32;;;;;;;;;;;;;;;;;;5138208;27;28393;-86
2022/01/24 13:39:57;;;;;;;;;;;;;;;;;;5140254;27;28553;-86
2022/01/24 13:42:22;;;;;;;;;;;;;;;;;;5139868;27;28449;-86
2022/01/24 13:44:47;;;;;;;;;;;;;;;;;;5138418;27;28534;-86
2022/01/24 13:47:12;;;;;;;;;;;;;;;;;;5119596;27;28406;-88
2022/01/24 13:49:37;;;;;;;;;;;;;;;;;;5137297;27;28445;-88
2022/01/24 13:52:07;;;;;;;;;;;;;;;;;;5138452;27;28483;-88
2022/01/24 13:54:34;;;;;;;;;;;;;;;;;;5138153;27;28553;-88
2022/01/24 13:56:59;;;;;;;;;;;;;;;;;;5138283;27;28251;-87
2022/01/24 13:59:24;;;;;;;;;;;;;;;;;;5138127;27;28260;-88
2022/01/24 14:01:50;;;;;;;;;;;;;;;;;;5138098;27;27814;-88
2022/01/24 14:04:15;;;;;;;;;;;;;;;;;;5138066;27;29140;-87
2022/01/24 14:06:41;;;;;;;;;;;;;;;;;;5119357;27;28098;-88
2022/01/24 14:09:06;;;;;;;;;;;;;;;;;;5138109;27;28248;-87
2022/01/24 14:11:31;;;;;;;;;;;;;;;;;;5138050;27;28462;-88
2022/01/24 14:14:01;;;;;;;;;;;;;;;;;;5137814;27;28743;-88
2022/01/24 14:16:34;;;;;;;;;;;;;;;;;;5137938;27;28341;-87
2022/01/24 14:18:59;;;;;;;;;;;;;;;;;;5137767;27;28464;-88
2022/01/24 14:21:25;;;;;;;;;;;;;;;;;;5137766;27;28567;-86
2022/01/24 14:23:50;;;;;;;;;;;;;;;;;;5137817;27;28487;-88
2022/01/24 14:26:15;;;;;;;;;;;;;;;;;;5137405;27;28520;-87
2022/01/24 14:28:40;;;;;;;;;;;;;;;;;;5137696;27;27762;-87
2022/01/24 14:31:10;;;;;;;;;;;;;;;;;;5137797;27;28350;-87
2022/01/24 14:33:35;;;;;;;;;;;;;;;;;;5137266;27;29526;-87
2022/01/24 14:36:01;;;;;;;;;;;;;;;;;;5137372;27;28384;-87
2022/01/24 14:38:26;;;;;;;;;;;;;;;;;;5119054;27;28467;-87
2022/01/24 14:40:53;;;;;;;;;;;;;;;;;;5137822;27;28431;-88
2022/01/24 14:46:05;;;;;;;;;;;;;;;;;;5137258;27;28370;-88
2022/01/24 14:48:30;;;;;;;;;;;;;;;;;;5118721;27;28470;-89
2022/01/24 14:50:55;;;;;;;;;;;;;;;;;;5137577;27;28443;-88
2022/01/24 14:53:27;;;;;;;;;;;;;;;;;;5137174;27;28510;-91
2022/01/24 14:55:53;;;;;;;;;;;;;;;;;;5118857;27;29312;-90
2022/01/24 14:58:18;;;;;;;;;;;;;;;;;;5118937;27;28351;-90
2022/01/24 15:00:43;;;;;;;;;;;;;;;;;;5118669;27;28478;-90
2022/01/24 15:03:08;;;;;;;;;;;;;;;;;;5118674;27;29901;-90
2022/01/24 15:05:33;;;;;;;;;;;;;;;;;;5118481;27;28289;-90
2022/01/24 15:07:58;;;;;;;;;;;;;;;;;;5118554;27;28449;-90
2022/01/24 15:10:23;;;;;;;;;;;;;;;;;;5137057;27;28374;-91
2022/01/24 15:12:53;;;;;;;;;;;;;;;;;;5137035;27;28416;-90
2022/01/24 15:15:20;;;;;;;;;;;;;;;;;;5137113;27;28296;-89
2022/01/24 15:25:57;;;;;;;;;;;;;;;;;;5136540;27;28461;-86
2022/01/24 15:28:22;;;;;;;;;;;;;;;;;;5120383;27;27668;-88
2022/01/24 15:30:47;;;;;;;;;;;;;;;;;;5137501;27;28268;-91
2022/01/24 15:33:13;;;;;;;;;;;;;;;;;;5119015;27;29821;-89
2022/01/24 15:35:38;;;;;;;;;;;;;;;;;;5137599;27;28421;-94
2022/01/24 15:38:06;;;;;;;;;;;;;;;;;;5119092;27;28338;-91
2022/01/24 15:40:31;;;;;;;;;;;;;;;;;;5138072;27;28302;-91
2022/01/24 15:48:02;;;;;;;;;;;;;;;;;;5137036;27;28470;-91
2022/01/24 15:50:27;;;;;;;;;;;;;;;;;;5150564;27;28273;-93
2022/01/24 15:52:55;;;;;;;;;;;;;;;;;;5139186;27;29562;-91
2022/01/24 15:55:24;;;;;;;;;;;;;;;;;;5138524;27;28478;-91
2022/01/24 15:57:49;;;;;;;;;;;;;;;;;;5138475;27;28346;-90
2022/01/24 16:00:15;;;;;;;;;;;;;;;;;;5138860;27;28418;-91
2022/01/24 16:02:40;;;;;;;;;;;;;;;;;;5134812;27;30052;-91
2022/01/24 16:05:05;;;;;;;;;;;;;;;;;;5136320;27;28424;-90
2022/01/24 16:07:31;;;;;;;;;;;;;;;;;;5136136;27;28501;-89
2022/01/24 16:09:56;;;;;;;;;;;;;;;;;;5136814;27;28454;-91
2022/01/24 16:12:21;;;;;;;;;;;;;;;;;;5137553;27;33841;-92
2022/01/24 16:14:46;;;;;;;;;;;;;;;;;;5139951;27;28275;-91
2022/01/24 16:17:12;;;;;;;;;;;;;;;;;;5140678;27;28566;-92
2022/01/24 16:19:41;;;;;;;;;;;;;;;;;;5141773;27;28318;-91
2022/01/24 16:27:11;;;;;;;;;;;;;;;;;;5141330;27;28533;-93
2022/01/24 16:29:37;;;;;;;;;;;;;;;;;;5128098;27;28621;-91
2022/01/24 16:32:02;;;;;;;;;;;;;;;;;;5122573;27;30154;-84
2022/01/24 16:34:27;;;;;;;;;;;;;;;;;;5139385;27;28280;-84
2022/01/24 16:36:53;;;;;;;;;;;;;;;;;;5138941;27;28410;-84
2022/01/24 16:39:19;;;;;;;;;;;;;;;;;;5139434;27;28382;-83
2022/01/24 16:41:54;;;;;;;;;;;;;;;;;;5139057;27;29379;-83
2022/01/24 16:49:31;;;;;;;;;;;;;;;;;;5139395;27;28282;-85
2022/01/24 16:51:57;;;;;;;;;;;;;;;;;;5138723;27;28447;-86
2022/01/24 16:54:25;;;;;;;;;;;;;;;;;;5138517;27;28382;-86
2022/01/24 16:56:50;;;;;;;;;;;;;;;;;;5120341;27;28552;-83
2022/01/24 16:59:15;;;;;;;;;;;;;;;;;;5139252;27;28415;-84
2022/01/24 17:01:40;;;;;;;;;;;;;;;;;;5138273;27;28500;-83
2022/01/24 17:04:05;;;;;;;;;;;;;;;;;;5138923;27;28468;-85
2022/01/24 17:06:31;;;;;;;;;;;;;;;;;;5119369;27;28289;-80
2022/01/24 17:08:57;;;;;;;;;;;;;;;;;;5138831;27;28377;-82
2022/01/24 17:11:26;;;;;;;;;;;;;;;;;;5138905;27;28529;-83
2022/01/24 17:13:51;;;;;;;;;;;;;;;;;;5119973;27;28525;-83
2022/01/24 17:16:17;;;;;;;;;;;;;;;;;;5119841;27;28341;-83
2022/01/24 17:18:42;;;;;;;;;;;;;;;;;;5137972;27;27931;-82
2022/01/24 17:21:07;;;;;;;;;;;;;;;;;;5138364;27;28462;-84
2022/01/24 17:23:32;;;;;;;;;;;;;;;;;;5138596;27;28406;-85
2022/01/24 17:25:57;;;;;;;;;;;;;;;;;;5138642;27;28508;-88
2022/01/24 17:28:22;;;;;;;;;;;;;;;;;;5138690;27;28393;-84
2022/01/24 17:30:47;;;;;;;;;;;;;;;;;;5119739;27;28542;-84
2022/01/24 17:33:16;;;;;;;;;;;;;;;;;;5119314;27;28411;-84
2022/01/24 17:35:41;;;;;;;;;;;;;;;;;;5137676;27;27839;-85
2022/01/24 17:38:06;;;;;;;;;;;;;;;;;;5138394;27;28316;-84
2022/01/24 17:40:31;;;;;;;;;;;;;;;;;;5138374;27;28425;-87
2022/01/24 17:42:56;;;;;;;;;;;;;;;;;;5119531;27;28344;-86
2022/01/24 17:45:21;;;;;;;;;;;;;;;;;;5137942;27;28539;-86
2022/01/24 17:47:47;;;;;;;;;;;;;;;;;;5138449;27;28345;-85
2022/01/24 17:50:12;;;;;;;;;;;;;;;;;;5138332;27;28367;-86
2022/01/24 17:52:37;;;;;;;;;;;;;;;;;;5137809;27;28471;-86
2022/01/24 17:55:02;;;;;;;;;;;;;;;;;;5138377;27;28321;-87
2022/01/24 17:57:27;;;;;;;;;;;;;;;;;;5119651;27;28452;-87
2022/01/24 17:59:52;;;;;;;;;;;;;;;;;;5137741;27;28568;-86
2022/01/24 18:02:17;;;;;;;;;;;;;;;;;;5137840;27;28525;-84
2022/01/24 18:04:42;;;;;;;;;;;;;;;;;;5137786;27;28298;-87
2022/01/24 18:07:08;;;;;;;;;;;;;;;;;;5118163;27;28318;-87
2022/01/24 18:09:33;;;;;;;;;;;;;;;;;;5119320;27;29867;-87
2022/01/24 18:11:58;;;;;;;;;;;;;;;;;;5138140;27;28340;-89
2022/01/24 18:14:23;;;;;;;;;;;;;;;;;;5119198;27;28281;-88
2022/01/24 18:16:48;;;;;;;;;;;;;;;;;;5136940;27;28510;-89
2022/01/24 18:19:13;;;;;;;;;;;;;;;;;;5120294;27;29954;-88
2022/01/24 18:21:39;;;;;;;;;;;;;;;;;;5123843;27;28236;-90
2022/01/24 18:24:04;;;;;;;;;;;;;;;;;;5136874;27;28417;-90
2022/01/24 18:26:29;;;;;;;;;;;;;;;;;;5126250;27;28332;-90
2022/01/24 18:28:54;;;;;;;;;;;;;;;;;;5118772;27;29817;-90
2022/01/24 18:31:19;;;;;;;;;;;;;;;;;;5137596;27;28262;-90
2022/01/24 18:33:44;;;;;;;;;;;;;;;;;;5119085;27;28295;-89
2022/01/24 18:36:09;;;;;;;;;;;;;;;;;;5118396;27;28321;-89
2022/01/24 18:38:34;;;;;;;;;;;;;;;;;;5118437;27;31031;-91
2022/01/24 18:40:59;;;;;;;;;;;;;;;;;;5137296;27;28447;-91
2022/01/24 18:43:28;;;;;;;;;;;;;;;;;;5118394;27;28343;-92
2022/01/24 18:45:53;;;;;;;;;;;;;;;;;;5118792;27;28597;-89
2022/01/24 18:48:18;;;;;;;;;;;;;;;;;;5117475;27;30014;-90
2022/01/24 18:50:43;;;;;;;;;;;;;;;;;;5118419;27;28657;-90
2022/01/24 18:53:08;;;;;;;;;;;;;;;;;;5137075;27;28437;-90
2022/01/24 18:55:33;;;;;;;;;;;;;;;;;;5137341;27;28350;-88
2022/01/24 18:57:58;;;;;;;;;;;;;;;;;;5118520;27;30881;-90
2022/01/24 19:00:23;;;;;;;;;;;;;;;;;;5118515;27;28422;-89
2022/01/24 19:02:48;;;;;;;;;;;;;;;;;;5137015;27;27766;-88
2022/01/24 19:05:14;;;;;;;;;;;;;;;;;;5137231;27;28494;-91
2022/01/24 19:07:39;;;;;;;;;;;;;;;;;;5136867;27;28698;-91
2022/01/24 19:10:04;;;;;;;;;;;;;;;;;;5118325;27;28671;-90
2022/01/24 19:12:29;;;;;;;;;;;;;;;;;;5136905;27;28458;-91
2022/01/24 19:14:59;;;;;;;;;;;;;;;;;;5137046;27;28413;-90
2022/01/24 19:17:28;;;;;;;;;;;;;;;;;;5118067;27;29357;-91
2022/01/24 19:25:11;;;;;;;;;;;;;;;;;;5136887;27;28239;-88
2022/01/24 19:27:37;;;;;;;;;;;;;;;;;;5137141;27;29142;-93
2022/01/24 19:30:02;;;;;;;;;;;;;;;;;;5135604;27;29070;-90
2022/01/24 19:32:27;;;;;;;;;;;;;;;;;;5136421;27;28457;-90
2022/01/24 19:34:52;;;;;;;;;;;;;;;;;;5136683;27;28429;-88
2022/01/24 19:37:17;;;;;;;;;;;;;;;;;;5136313;27;28576;-90
2022/01/24 19:39:42;;;;;;;;;;;;;;;;;;5117725;27;28404;-87
2022/01/24 19:42:07;;;;;;;;;;;;;;;;;;5117686;27;28471;-86
2022/01/24 19:44:32;;;;;;;;;;;;;;;;;;5117814;27;28610;-87
2022/01/24 19:46:57;;;;;;;;;;;;;;;;;;5118588;27;31115;-90
2022/01/24 19:49:22;;;;;;;;;;;;;;;;;;5140876;27;28364;-90
2022/01/24 19:51:50;;;;;;;;;;;;;;;;;;5140403;27;28427;-93
2022/01/24 19:54:18;;;;;;;;;;;;;;;;;;5121877;27;28500;-90
2022/01/24 19:56:47;;;;;;;;;;;;;;;;;;5121535;27;30568;-90
2022/01/24 19:59:19;;;;;;;;;;;;;;;;;;5140028;27;27811;-90
2022/01/24 20:01:45;;;;;;;;;;;;;;;;;;5139958;27;28465;-88
2022/01/24 20:04:10;;;;;;;;;;;;;;;;;;5140127;27;28377;-88
2022/01/24 20:06:36;;;;;;;;;;;;;;;;;;5121946;27;30653;-88
2022/01/24 20:09:01;;;;;;;;;;;;;;;;;;5124603;27;28277;-90
2022/01/24 20:11:26;;;;;;;;;;;;;;;;;;5124383;27;28348;-89
2022/01/24 20:13:52;;;;;;;;;;;;;;;;;;5124400;27;28597;-93
2022/01/24 20:16:17;;;;;;;;;;;;;;;;;;5142124;27;28701;-93
2022/01/24 20:18:42;;;;;;;;;;;;;;;;;;5122963;27;28315;-91
2022/01/24 20:21:10;;;;;;;;;;;;;;;;;;5122068;27;28505;-90
2022/01/24 20:23:35;;;;;;;;;;;;;;;;;;5121041;27;28464;-90
2022/01/24 20:26:00;;;;;;;;;;;;;;;;;;5140187;27;28516;-91
2022/01/24 20:28:25;;;;;;;;;;;;;;;;;;5121224;27;28369;-92
2022/01/24 20:30:50;;;;;;;;;;;;;;;;;;5122591;27;28413;-92
2022/01/24 20:33:16;;;;;;;;;;;;;;;;;;5122324;27;28279;-94
2022/01/24 20:35:41;;;;;;;;;;;;;;;;;;5122313;27;29938;-91
2022/01/24 20:38:06;;;;;;;;;;;;;;;;;;5121492;27;28691;-91
2022/01/24 20:40:31;;;;;;;;;;;;;;;;;;5120965;27;28314;-91
2022/01/24 20:43:02;;;;;;;;;;;;;;;;;;5121861;27;28533;-91
2022/01/24 20:45:27;;;;;;;;;;;;;;;;;;5122014;27;29923;-92
2022/01/24 20:47:52;;;;;;;;;;;;;;;;;;5122261;27;28281;-91
2022/01/24 20:50:17;;;;;;;;;;;;;;;;;;5122001;27;28420;-91
2022/01/24 20:52:42;;;;;;;;;;;;;;;;;;5121990;27;28542;-93
2022/01/24 20:55:08;;;;;;;;;;;;;;;;;;5122019;27;29712;-92
2022/01/24 20:57:33;;;;;;;;;;;;;;;;;;5140819;27;28391;-92
2022/01/24 20:59:58;;;;;;;;;;;;;;;;;;5122561;27;28480;-92
2022/01/24 21:02:23;;;;;;;;;;;;;;;;;;5122585;27;28512;-92
2022/01/24 21:04:48;;;;;;;;;;;;;;;;;;5123190;27;29697;-93
2022/01/24 21:07:13;;;;;;;;;;;;;;;;;;5122446;27;28618;-93
2022/01/24 21:09:39;;;;;;;;;;;;;;;;;;5123227;27;28421;-92
2022/01/24 21:12:06;;;;;;;;;;;;;;;;;;5122256;27;28536;-92
2022/01/24 21:14:31;;;;;;;;;;;;;;;;;;5139298;27;28531;-89
2022/01/24 21:16:56;;;;;;;;;;;;;;;;;;5119962;27;28366;-90
2022/01/24 21:19:21;;;;;;;;;;;;;;;;;;5138883;27;27836;-89
2022/01/24 21:21:46;;;;;;;;;;;;;;;;;;5138687;27;28538;-89
2022/01/24 21:24:11;;;;;;;;;;;;;;;;;;5119665;27;29962;-89
2022/01/24 21:26:36;;;;;;;;;;;;;;;;;;5138561;27;28311;-89
2022/01/24 21:29:01;;;;;;;;;;;;;;;;;;5138468;27;28339;-89
2022/01/24 21:31:27;;;;;;;;;;;;;;;;;;5138812;27;28258;-90
2022/01/24 21:34:26;;;;;;;;;;;;;;;;;;5138361;27;28514;-90
2022/01/24 21:36:43;;;;;;;;;;;;;;;;;;5134967;27;28526;-89
2022/01/24 21:39:08;;;;;;;;;;;;;;;;;;5138679;27;28402;-89
2022/01/24 21:41:34;;;;;;;;;;;;;;;;;;5138266;27;28330;-89
2022/01/24 21:43:59;;;;;;;;;;;;;;;;;;5119579;27;31106;-89
2022/01/24 21:46:24;;;;;;;;;;;;;;;;;;5138548;27;28409;-89
2022/01/24 21:48:49;;;;;;;;;;;;;;;;;;5138355;27;28478;-90
2022/01/24 21:51:14;;;;;;;;;;;;;;;;;;5119664;27;28397;-89
2022/01/24 21:53:40;;;;;;;;;;;;;;;;;;5138131;27;28436;-90
2022/01/24 21:56:05;;;;;;;;;;;;;;;;;;5138011;27;28471;-90
2022/01/24 21:58:30;;;;;;;;;;;;;;;;;;5138199;27;28936;-90
2022/01/24 22:00:55;;;;;;;;;;;;;;;;;;5138388;27;28451;-89
2022/01/24 22:03:20;;;;;;;;;;;;;;;;;;5119419;27;28501;-90
2022/01/24 22:05:45;;;;;;;;;;;;;;;;;;5119010;27;29425;-89
2022/01/24 22:10:38;;;;;;;;;;;;;;;;;;5142599;27;28305;-94
2022/01/24 22:13:03;;;;;;;;;;;;;;;;;;5144517;27;28669;-94
2022/01/24 22:15:28;;;;;;;;;;;;;;;;;;5123883;27;28794;-94
2022/01/24 22:17:53;;;;;;;;;;;;;;;;;;5122558;27;27967;-94
2022/01/24 22:20:19;;;;;;;;;;;;;;;;;;5122916;27;28429;-94
2022/01/24 22:25:28;;;;;;;;;;;;;;;;;;5140269;27;28379;-94
2022/01/24 22:27:53;;;;;;;;;;;;;;;;;;5122641;27;27778;-93
2022/01/24 22:30:18;;;;;;;;;;;;;;;;;;5122665;27;27929;-94
2022/01/24 22:32:43;;;;;;;;;;;;;;;;;;5123152;27;30073;-93
2022/01/24 22:35:08;;;;;;;;;;;;;;;;;;5122140;27;28446;-94
2022/01/24 22:37:34;;;;;;;;;;;;;;;;;;5122836;27;28328;-95
2022/01/24 22:39:59;;;;;;;;;;;;;;;;;;5122492;27;28541;-93
2022/01/24 22:42:24;;;;;;;;;;;;;;;;;;5122578;27;30095;-93
2022/01/24 22:44:49;;;;;;;;;;;;;;;;;;5122497;27;28342;-94
2022/01/24 22:47:14;;;;;;;;;;;;;;;;;;5122083;27;28326;-93
2022/01/24 22:49:39;;;;;;;;;;;;;;;;;;5122794;27;28586;-94
2022/01/24 22:52:04;;;;;;;;;;;;;;;;;;5122088;27;29915;-94
2022/01/24 22:54:29;;;;;;;;;;;;;;;;;;5122519;27;28445;-94
2022/01/24 22:56:55;;;;;;;;;;;;;;;;;;5122604;27;27917;-95
2022/01/24 22:59:20;;;;;;;;;;;;;;;;;;5123053;27;28682;-95
2022/01/24 23:01:46;;;;;;;;;;;;;;;;;;5123356;27;30928;-95
2022/01/24 23:04:11;;;;;;;;;;;;;;;;;;5121609;27;28617;-94
2022/01/24 23:06:36;;;;;;;;;;;;;;;;;;5123128;27;28986;-95
2022/01/24 23:09:01;;;;;;;;;;;;;;;;;;5122364;27;28327;-94
2022/01/24 23:11:26;;;;;;;;;;;;;;;;;;5122712;27;29834;-95
2022/01/24 23:21:25;;;;;;;;;;;;;;;;;;5140859;27;28240;-94
2022/01/24 23:23:51;;;;;;;;;;;;;;;;;;5122123;27;28501;-94
2022/01/24 23:26:16;;;;;;;;;;;;;;;;;;5121234;27;28348;-94
2022/01/24 23:28:46;;;;;;;;;;;;;;;;;;5122969;27;28366;-95
2022/01/24 23:31:14;;;;;;;;;;;;;;;;;;5121735;27;29917;-94
2022/01/24 23:39:03;;;;;;;;;;;;;;;;;;5141963;27;28323;-95
2022/01/24 23:41:29;;;;;;;;;;;;;;;;;;5120315;27;29794;-95
2022/01/24 23:44:00;;;;;;;;;;;;;;;;;;5122936;27;28420;-94
2022/01/24 23:46:25;;;;;;;;;;;;;;;;;;5122253;27;27806;-94
2022/01/24 23:48:51;;;;;;;;;;;;;;;;;;5122623;27;27874;-94
2022/01/24 23:51:16;;;;;;;;;;;;;;;;;;5122682;27;29585;-95
2022/01/24 23:53:41;;;;;;;;;;;;;;;;;;5121969;27;28469;-93
2022/01/24 23:56:08;;;;;;;;;;;;;;;;;;5122970;27;27742;-95
